createdAt,value
2019-04-22T00:00:57.730Z,99.60
2019-04-22T00:03:47.463Z,99.80
2019-04-22T00:06:48.320Z,99.90
2019-04-22T00:09:31.730Z,99.90
2019-04-22T00:12:16.559Z,99.90
2019-04-22T00:14:46.563Z,99.90
2019-04-22T00:17:44.829Z,99.90
2019-04-22T00:20:14.386Z,99.90
2019-04-22T00:22:56.715Z,99.90
2019-04-22T00:25:52.849Z,99.90
2019-04-22T00:28:32.999Z,99.90
2019-04-22T00:31:29.896Z,99.90
2019-04-22T00:34:14.234Z,99.90
2019-04-22T00:36:54.584Z,99.90
2019-04-22T00:39:41.326Z,99.90
2019-04-22T00:42:21.094Z,99.90
2019-04-22T00:45:06.148Z,99.90
2019-04-22T00:48:00.963Z,99.90
2019-04-22T00:50:31.704Z,99.90
2019-04-22T00:53:08.865Z,99.90
2019-04-22T00:55:54.069Z,99.90
2019-04-22T00:58:31.175Z,99.90
2019-04-22T01:06:42.295Z,99.90
2019-04-22T01:09:17.114Z,99.90
2019-04-22T01:12:10.071Z,99.90
2019-04-22T01:14:52.011Z,99.90
2019-04-22T01:17:27.151Z,99.90
2019-04-22T01:20:25.842Z,99.90
2019-04-22T01:22:52.189Z,99.90
2019-04-22T01:25:30.564Z,99.90
2019-04-22T01:28:10.978Z,99.90
2019-04-22T01:30:46.911Z,99.90
2019-04-22T01:33:28.355Z,99.90
2019-04-22T01:36:23.229Z,99.90
2019-04-22T01:39:03.840Z,99.90
2019-04-22T01:41:55.098Z,99.90
2019-04-22T01:44:33.181Z,99.90
2019-04-22T01:47:21.416Z,99.90
2019-04-22T01:50:04.713Z,99.90
2019-04-22T01:52:44.725Z,99.90
2019-04-22T01:55:27.720Z,99.90
2019-04-22T01:57:59.524Z,99.90
2019-04-22T02:00:44.322Z,99.90
2019-04-22T02:03:33.602Z,99.90
2019-04-22T02:06:17.139Z,99.90
2019-04-22T02:09:01.992Z,99.90
2019-04-22T02:11:41.815Z,99.90
2019-04-22T02:14:20.572Z,99.90
2019-04-22T02:17:06.495Z,99.90
2019-04-22T02:19:53.069Z,99.90
2019-04-22T02:22:47.618Z,99.90
2019-04-22T02:25:09.329Z,99.90
2019-04-22T02:27:56.097Z,99.90
2019-04-22T02:30:36.356Z,99.90
2019-04-22T02:33:41.291Z,99.90
2019-04-22T02:44:28.695Z,99.90
2019-04-22T02:47:04.519Z,99.90
2019-04-22T02:49:31.214Z,99.90
2019-04-22T02:52:18.119Z,99.90
2019-04-22T02:57:47.452Z,99.90
2019-04-22T03:08:30.174Z,99.90
2019-04-22T03:11:14.675Z,99.90
2019-04-22T03:13:59.868Z,99.90
2019-04-22T03:16:41.090Z,99.90
2019-04-22T03:19:25.554Z,99.90
2019-04-22T03:22:00.565Z,99.90
2019-04-22T03:24:51.304Z,99.90
2019-04-22T03:27:25.402Z,99.90
2019-04-22T03:30:41.615Z,99.90
2019-04-22T03:38:15.164Z,99.90
2019-04-22T03:41:03.253Z,99.90
2019-04-22T03:44:08.230Z,99.90
2019-04-22T03:46:30.149Z,99.90
2019-04-22T03:49:23.097Z,99.90
2019-04-22T03:52:03.039Z,99.90
2019-04-22T04:08:12.177Z,99.90
2019-04-22T04:10:39.995Z,99.90
2019-04-22T04:16:03.250Z,99.90
2019-04-22T04:19:02.638Z,99.90
2019-04-22T04:21:37.081Z,99.90
2019-04-22T04:24:34.987Z,99.90
2019-04-22T04:32:38.746Z,99.90
2019-04-22T04:35:16.797Z,99.90
2019-04-22T04:37:52.442Z,99.90
2019-04-22T04:40:28.777Z,99.90
2019-04-22T04:43:10.009Z,99.90
2019-04-22T04:48:49.614Z,99.90
2019-04-22T04:51:33.531Z,99.90
2019-04-22T04:54:08.082Z,99.90
2019-04-22T04:56:44.524Z,99.90
2019-04-22T04:59:57.703Z,99.90
2019-04-22T05:02:06.373Z,99.90
2019-04-22T05:04:59.470Z,95.20
2019-04-22T05:18:18.998Z,79.50
2019-04-22T05:21:14.212Z,78.80
2019-04-22T05:23:43.881Z,76.80
2019-04-22T05:26:26.101Z,76.30
2019-04-22T05:29:05.503Z,73.90
2019-04-22T05:31:48.230Z,73.60
2019-04-22T05:34:25.406Z,74.40
2019-04-22T05:37:07.365Z,78.30
2019-04-22T05:39:52.402Z,82.10
2019-04-22T05:42:29.456Z,85.90
2019-04-22T05:45:17.350Z,90.30
2019-04-22T05:47:57.507Z,91.80
2019-04-22T05:50:37.242Z,93.30
2019-04-22T05:53:20.128Z,96.60
2019-04-22T05:56:10.080Z,99.70
2019-04-22T05:58:51.456Z,99.90
2019-04-22T06:04:15.141Z,99.90
2019-04-22T06:06:53.789Z,99.90
2019-04-22T06:09:36.153Z,99.90
2019-04-22T06:12:12.563Z,99.90
2019-04-22T06:14:58.474Z,99.90
2019-04-22T06:20:21.855Z,99.90
2019-04-22T06:28:38.753Z,99.90
2019-04-22T06:31:16.029Z,99.90
2019-04-22T06:33:56.506Z,99.90
2019-04-22T06:36:37.528Z,99.90
2019-04-22T06:39:22.184Z,99.90
2019-04-22T06:42:06.814Z,99.90
2019-04-22T06:44:43.045Z,99.90
2019-04-22T06:47:39.857Z,99.90
2019-04-22T06:50:08.030Z,99.90
2019-04-22T06:52:55.679Z,99.90
2019-04-22T06:55:40.186Z,99.90
2019-04-22T06:58:15.270Z,99.90
2019-04-22T07:00:54.702Z,99.90
2019-04-22T07:03:52.331Z,99.00
2019-04-22T07:06:27.197Z,98.70
2019-04-22T07:11:46.009Z,97.50
2019-04-22T07:14:22.494Z,96.90
2019-04-22T07:17:14.281Z,96.50
2019-04-22T07:19:40.876Z,96.30
2019-04-22T07:22:32.161Z,95.40
2019-04-22T07:25:29.149Z,95.00
2019-04-22T07:30:59.163Z,95.80
2019-04-22T07:33:37.911Z,95.90
2019-04-22T07:36:38.303Z,95.50
2019-04-22T07:39:04.204Z,95.30
2019-04-22T07:41:45.983Z,94.70
2019-04-22T07:44:31.272Z,93.70
2019-04-22T07:50:02.666Z,93.00
2019-04-22T07:55:13.471Z,92.70
2019-04-22T07:58:06.262Z,92.70
2019-04-22T08:03:47.057Z,92.20
2019-04-22T08:06:12.063Z,93.10
2019-04-22T08:08:53.530Z,92.20
2019-04-22T08:11:46.573Z,92.50
2019-04-22T08:14:20.873Z,91.80
2019-04-22T08:17:33.066Z,91.60
2019-04-22T08:19:57.461Z,92.30
2019-04-22T08:22:39.936Z,91.40
2019-04-22T08:25:16.766Z,91.70
2019-04-22T08:28:03.301Z,91.40
2019-04-22T08:30:50.763Z,91.10
2019-04-22T08:33:29.374Z,90.90
2019-04-22T08:39:02.244Z,90.70
2019-04-22T08:44:49.658Z,90.80
2019-04-22T08:47:21.417Z,90.30
2019-04-22T08:49:56.916Z,91.20
2019-04-22T08:52:26.061Z,90.80
2019-04-22T08:55:19.420Z,90.10
2019-04-22T09:00:49.884Z,90.50
2019-04-22T09:03:25.989Z,90.00
2019-04-22T09:06:11.410Z,89.20
2019-04-22T09:08:55.188Z,88.30
2019-04-22T09:14:15.678Z,86.00
2019-04-22T09:16:54.786Z,87.10
2019-04-22T09:19:40.927Z,85.80
2019-04-22T09:22:21.898Z,87.20
2019-04-22T09:25:03.740Z,84.50
2019-04-22T09:27:51.269Z,83.60
2019-04-22T09:30:40.500Z,84.50
2019-04-22T09:36:07.331Z,82.50
2019-04-22T09:41:29.793Z,80.20
2019-04-22T09:44:05.526Z,77.40
2019-04-22T09:46:47.033Z,77.30
2019-04-22T09:49:46.640Z,76.70
2019-04-22T09:52:44.074Z,75.60
2019-04-22T09:58:02.800Z,73.60
2019-04-22T10:00:58.085Z,73.30
2019-04-22T10:03:26.004Z,71.90
2019-04-22T10:06:16.632Z,73.00
2019-04-22T10:09:12.745Z,73.90
2019-04-22T10:14:18.942Z,72.40
2019-04-22T10:16:53.801Z,71.70
2019-04-22T10:19:41.094Z,71.10
2019-04-22T10:25:12.018Z,67.10
2019-04-22T10:27:55.510Z,68.40
2019-04-22T10:30:44.004Z,68.10
2019-04-22T10:33:10.112Z,68.40
2019-04-22T10:35:34.531Z,66.80
2019-04-22T10:38:16.477Z,66.30
2019-04-22T10:40:56.583Z,68.80
2019-04-22T10:43:25.222Z,65.70
2019-04-22T10:46:26.278Z,65.40
2019-04-22T10:49:15.890Z,64.60
2019-04-22T10:51:58.385Z,64.20
2019-04-22T10:54:38.887Z,62.10
2019-04-22T10:57:20.376Z,64.70
2019-04-22T11:00:01.033Z,66.70
2019-04-22T11:02:43.764Z,67.10
2019-04-22T11:05:24.422Z,66.60
2019-04-22T11:08:07.955Z,64.00
2019-04-22T11:11:03.611Z,65.30
2019-04-22T11:13:28.427Z,64.70
2019-04-22T11:16:09.528Z,62.90
2019-04-22T11:18:51.932Z,62.80
2019-04-22T11:21:33.688Z,62.40
2019-04-22T11:24:14.864Z,62.30
2019-04-22T11:26:57.006Z,63.40
2019-04-22T11:29:39.537Z,62.60
2019-04-22T11:32:20.256Z,62.20
2019-04-22T11:35:01.690Z,62.40
2019-04-22T11:37:42.755Z,63.30
2019-04-22T11:43:10.258Z,63.30
2019-04-22T11:46:11.429Z,63.80
2019-04-22T11:48:51.978Z,64.60
2019-04-22T11:51:33.835Z,65.00
2019-04-22T11:54:14.721Z,64.00
2019-04-22T11:56:56.783Z,65.20
2019-04-22T11:59:38.531Z,64.40
2019-04-22T12:02:21.546Z,63.90
2019-04-22T12:05:02.091Z,62.50
2019-04-22T12:07:42.781Z,62.90
2019-04-22T12:10:34.502Z,61.50
2019-04-22T12:13:08.115Z,60.70
2019-04-22T12:15:51.062Z,60.50
2019-04-22T12:18:31.279Z,59.90
2019-04-22T12:21:13.040Z,61.30
2019-04-22T12:23:53.116Z,60.60
2019-04-22T12:26:34.564Z,63.00
2019-04-22T12:29:15.349Z,62.20
2019-04-22T12:31:55.862Z,63.10
2019-04-22T12:34:35.826Z,59.70
2019-04-22T12:37:29.705Z,60.90
2019-04-22T12:39:58.270Z,61.50
2019-04-22T12:42:39.410Z,62.00
2019-04-22T12:45:20.443Z,61.40
2019-04-22T12:48:02.136Z,60.90
2019-04-22T12:50:45.631Z,60.10
2019-04-22T12:53:27.656Z,59.10
2019-04-22T12:56:07.047Z,58.90
2019-04-22T12:58:47.703Z,59.40
2019-04-22T13:01:28.807Z,59.30
2019-04-22T13:04:13.644Z,57.80
2019-04-22T13:06:53.425Z,58.20
2019-04-22T13:09:33.890Z,58.50
2019-04-22T13:12:15.150Z,58.00
2019-04-22T13:14:54.882Z,57.70
2019-04-22T13:17:35.719Z,58.60
2019-04-22T13:20:18.319Z,58.10
2019-04-22T13:22:59.003Z,58.40
2019-04-22T13:25:40.745Z,58.70
2019-04-22T13:28:22.907Z,59.20
2019-04-22T13:31:03.786Z,59.40
2019-04-22T13:33:44.238Z,59.00
2019-04-22T13:36:26.387Z,59.40
2019-04-22T13:39:07.002Z,59.00
2019-04-22T13:41:52.176Z,58.40
2019-04-22T13:44:28.757Z,58.30
2019-04-22T13:47:19.778Z,58.80
2019-04-22T13:50:28.295Z,58.90
2019-04-22T13:53:10.688Z,59.10
2019-04-22T13:58:12.188Z,58.80
2019-04-22T14:00:40.680Z,58.80
2019-04-22T14:06:54.525Z,59.50
2019-04-22T14:09:35.945Z,59.20
2019-04-22T14:12:17.813Z,59.90
2019-04-22T14:14:58.389Z,59.30
2019-04-22T14:17:38.957Z,60.00
2019-04-22T14:20:20.659Z,59.40
2019-04-22T14:23:03.116Z,59.50
2019-04-22T14:25:43.809Z,59.60
2019-04-22T14:28:25.050Z,60.10
2019-04-22T14:31:06.658Z,59.10
2019-04-22T14:33:50.477Z,59.40
2019-04-22T14:36:29.962Z,59.50
2019-04-22T14:39:12.303Z,59.50
2019-04-22T14:42:06.502Z,59.40
2019-04-22T14:47:42.750Z,58.60
2019-04-22T14:50:22.345Z,59.00
2019-04-22T14:53:03.969Z,59.20
2019-04-22T14:55:28.729Z,59.00
2019-04-22T14:57:55.092Z,57.80
2019-04-22T15:00:44.256Z,57.90
2019-04-22T15:03:47.931Z,59.10
2019-04-22T15:06:28.469Z,58.40
2019-04-22T15:09:14.401Z,58.60
2019-04-22T15:12:08.034Z,58.80
2019-04-22T15:14:39.498Z,58.10
2019-04-22T15:17:27.135Z,58.80
2019-04-22T15:20:34.530Z,58.20
2019-04-22T15:23:14.882Z,59.30
2019-04-22T15:25:56.805Z,59.20
2019-04-22T15:28:37.629Z,58.80
2019-04-22T15:31:19.369Z,59.30
2019-04-22T15:34:00.555Z,60.40
2019-04-22T15:36:42.107Z,60.60
2019-04-22T15:39:23.113Z,60.60
2019-04-22T15:42:11.638Z,59.90
2019-04-22T15:44:46.237Z,59.60
2019-04-22T15:47:27.033Z,59.70
2019-04-22T15:50:08.034Z,60.00
2019-04-22T15:52:51.954Z,59.40
2019-04-22T15:55:32.344Z,59.00
2019-04-22T15:58:13.055Z,58.60
2019-04-22T16:01:03.958Z,59.30
2019-04-22T16:03:36.683Z,59.00
2019-04-22T16:06:17.734Z,59.10
2019-04-22T16:08:59.821Z,59.00
2019-04-22T16:11:40.488Z,59.20
2019-04-22T16:14:23.906Z,59.70
2019-04-22T16:17:08.647Z,59.60
2019-04-22T16:20:11.038Z,59.40
2019-04-22T16:23:11.194Z,59.90
2019-04-22T16:26:15.304Z,59.80
2019-04-22T16:29:16.272Z,60.50
2019-04-22T16:31:57.614Z,60.40
2019-04-22T16:34:38.498Z,59.70
2019-04-22T16:37:18.946Z,59.70
2019-04-22T16:40:00.759Z,59.70
2019-04-22T16:42:48.820Z,59.90
2019-04-22T16:45:27.368Z,59.10
2019-04-22T16:48:09.360Z,59.70
2019-04-22T16:50:51.173Z,58.90
2019-04-22T16:53:32.012Z,59.50
2019-04-22T16:56:12.979Z,59.40
2019-04-22T16:58:54.716Z,59.40
2019-04-22T17:02:01.283Z,59.20
2019-04-22T17:05:02.020Z,59.50
2019-04-22T17:07:44.207Z,59.70
2019-04-22T17:10:26.129Z,59.00
2019-04-22T17:13:12.026Z,59.20
2019-04-22T17:15:49.408Z,59.40
2019-04-22T17:18:30.870Z,58.90
2019-04-22T17:21:14.601Z,58.70
2019-04-22T17:23:55.973Z,59.30
2019-04-22T17:26:36.779Z,59.50
2019-04-22T17:29:16.919Z,58.20
2019-04-22T17:32:03.721Z,58.90
2019-04-22T17:34:39.377Z,58.40
2019-04-22T17:37:24.635Z,58.50
2019-04-22T17:40:17.499Z,58.50
2019-04-22T17:43:07.126Z,58.80
2019-04-22T17:52:30.473Z,59.00
2019-04-22T17:55:04.549Z,58.70
2019-04-22T17:57:49.537Z,59.20
2019-04-22T18:00:29.801Z,59.20
2019-04-22T18:03:03.215Z,59.70
2019-04-22T18:05:44.938Z,59.50
2019-04-22T18:08:40.770Z,59.80
2019-04-22T18:11:31.892Z,59.90
2019-04-22T18:14:16.785Z,59.80
2019-04-22T18:16:47.682Z,59.80
2019-04-22T18:19:26.328Z,60.10
2019-04-22T18:22:02.655Z,60.30
2019-04-22T18:24:51.622Z,60.00
2019-04-22T18:27:55.221Z,59.80
2019-04-22T18:30:14.908Z,59.80
2019-04-22T18:32:58.546Z,59.90
2019-04-22T18:35:42.075Z,60.00
2019-04-22T18:38:35.584Z,60.50
2019-04-22T18:41:08.101Z,60.80
2019-04-22T18:43:53.118Z,61.20
2019-04-22T18:46:34.498Z,61.30
2019-04-22T18:49:12.412Z,61.80
2019-04-22T18:52:01.098Z,62.30
2019-04-22T18:54:59.375Z,62.70
2019-04-22T18:58:02.232Z,63.00
2019-04-22T19:00:25.507Z,63.20
2019-04-22T19:03:11.680Z,63.60
2019-04-22T19:06:20.357Z,64.00
2019-04-22T19:08:50.297Z,64.10
2019-04-22T19:11:35.531Z,64.40
2019-04-22T19:14:20.714Z,64.60
2019-04-22T19:17:07.663Z,65.00
2019-04-22T19:19:49.871Z,65.10
2019-04-22T19:22:27.206Z,65.40
2019-04-22T19:25:00.991Z,66.20
2019-04-22T19:27:46.734Z,66.80
2019-04-22T19:30:30.349Z,67.00
2019-04-22T19:33:11.210Z,67.40
2019-04-22T19:35:58.072Z,67.90
2019-04-22T19:38:25.622Z,67.80
2019-04-22T19:41:19.971Z,68.20
2019-04-22T19:44:00.648Z,68.60
2019-04-22T19:46:43.748Z,68.90
2019-04-22T19:49:33.042Z,69.00
2019-04-22T19:52:15.685Z,69.30
2019-04-22T19:54:46.704Z,69.20
2019-04-22T19:57:31.364Z,69.30
2019-04-22T20:00:14.460Z,69.20
2019-04-22T20:06:38.431Z,69.50
2019-04-22T20:09:26.984Z,69.50
2019-04-22T20:12:02.519Z,69.20
2019-04-22T20:14:48.076Z,69.60
2019-04-22T20:17:32.401Z,69.80
2019-04-22T20:20:16.141Z,69.90
2019-04-22T20:22:48.095Z,70.00
2019-04-22T20:25:31.249Z,70.00
2019-04-22T20:28:19.896Z,70.20
2019-04-22T20:30:55.818Z,70.20
2019-04-22T20:33:44.517Z,70.60
2019-04-22T20:36:49.120Z,70.80
2019-04-22T20:39:04.955Z,70.40
2019-04-22T20:41:43.065Z,70.90
2019-04-22T20:44:37.293Z,71.30
2019-04-22T20:47:09.005Z,72.50
2019-04-22T20:49:54.774Z,72.10
2019-04-22T20:52:45.065Z,72.40
2019-04-22T20:55:13.757Z,72.60
2019-04-22T20:58:07.577Z,72.70
2019-04-22T21:00:39.010Z,72.70
2019-04-22T21:03:15.977Z,72.70
2019-04-22T21:06:00.849Z,73.10
2019-04-22T21:08:47.554Z,73.20
2019-04-22T21:11:29.978Z,73.30
2019-04-22T21:14:11.787Z,73.30
2019-04-22T21:16:56.260Z,73.60
2019-04-22T21:19:46.464Z,73.60
2019-04-22T21:22:24.488Z,73.70
2019-04-22T21:24:57.732Z,73.60
2019-04-22T21:27:45.062Z,73.20
2019-04-22T21:30:26.355Z,72.90
2019-04-22T21:33:04.167Z,72.50
2019-04-22T21:36:03.035Z,72.30
2019-04-22T21:38:33.151Z,71.50
2019-04-22T21:41:10.093Z,70.80
2019-04-22T21:43:59.097Z,69.80
2019-04-22T21:46:42.488Z,69.20
2019-04-22T21:49:25.540Z,68.30
2019-04-22T21:52:05.385Z,68.40
2019-04-22T21:54:57.030Z,68.40
2019-04-22T21:57:53.834Z,68.40
2019-04-22T22:03:19.344Z,68.70
2019-04-22T22:05:47.233Z,68.80
2019-04-22T22:08:49.019Z,69.10
2019-04-22T22:11:24.593Z,69.40
2019-04-22T22:14:10.323Z,69.50
2019-04-22T22:16:38.666Z,69.70
2019-04-22T22:19:30.152Z,69.80
2019-04-22T22:22:28.115Z,70.00
2019-04-22T22:24:57.241Z,70.20
2019-04-22T22:27:37.188Z,70.40
2019-04-22T22:30:38.489Z,70.60
2019-04-22T22:33:05.785Z,70.80
2019-04-22T22:35:43.967Z,71.10
2019-04-22T22:38:24.382Z,71.50
2019-04-22T22:40:48.006Z,71.80
2019-04-22T22:43:35.333Z,72.20
2019-04-22T22:46:22.941Z,72.70
2019-04-22T22:49:18.647Z,72.90
2019-04-22T22:52:11.902Z,73.20
2019-04-22T22:54:44.133Z,73.60
2019-04-22T22:57:27.751Z,73.80
2019-04-22T23:00:01.482Z,74.10
2019-04-22T23:03:03.556Z,74.60
2019-04-22T23:05:35.369Z,74.80
2019-04-22T23:08:07.749Z,75.00
2019-04-22T23:11:05.398Z,75.30
2019-04-22T23:13:38.673Z,75.70
2019-04-22T23:16:04.953Z,75.90
2019-04-22T23:18:57.524Z,76.30
2019-04-22T23:22:05.456Z,76.50
2019-04-22T23:25:03.199Z,76.90
2019-04-22T23:27:53.994Z,77.40
2019-04-22T23:30:44.620Z,77.90
2019-04-22T23:33:42.502Z,77.90
2019-04-22T23:36:36.853Z,78.20
2019-04-22T23:39:54.749Z,78.50
2019-04-22T23:42:28.510Z,78.90
2019-04-22T23:45:15.464Z,79.30
2019-04-22T23:47:43.531Z,79.60
2019-04-22T23:50:35.825Z,80.00
2019-04-22T23:53:57.329Z,80.20
2019-04-22T23:56:16.922Z,80.40
2019-04-22T23:59:09.726Z,81.00
